Time;durP1;ratioP1;P1;durP2;ratioP2;P2;SDS_P1;SDS_P2;PMS_P1;PMS_P2;Temp;Humidity;BMP_temperature;BMP_pressure;BME280_temperature;BME280_humidity;BME280_pressure;Samples;Min_cycle;Max_cycle;Signal;HPM_P1;HPM_P2
2022/08/26 00:00:47;;;;;;;15.15;4.38;;;;;;;22.00;73.43;94300.59;5091663;28;20579;-80
2022/08/26 00:03:18;;;;;;;11.77;4.07;;;;;;;22.16;74.10;94330.50;5091608;28;20198;-80
2022/08/26 00:05:46;;;;;;;12.60;4.30;;;;;;;21.92;74.05;94298.28;5091352;28;20232;-81
2022/08/26 00:08:15;;;;;;;13.20;4.13;;;;;;;22.13;74.40;94324.94;5091457;28;20190;-80
2022/08/26 00:10:43;;;;;;;14.40;3.90;;;;;;;22.13;74.33;94325.72;5090598;28;20563;-79
2022/08/26 00:13:13;;;;;;;12.20;4.20;;;;;;;22.01;74.80;94315.22;5091197;28;20582;-80
2022/08/26 00:15:42;;;;;;;7.88;4.18;;;;;;;22.05;74.98;94326.00;5090955;28;20197;-77
2022/08/26 00:18:09;;;;;;;14.52;3.65;;;;;;;22.02;75.42;94319.41;5088552;28;20619;-80
2022/08/26 00:20:36;;;;;;;12.23;4.05;;;;;;;21.97;75.72;94327.06;5089619;28;20186;-80
2022/08/26 00:23:03;;;;;;;17.33;4.10;;;;;;;21.97;75.71;94315.84;5089962;28;20197;-80
2022/08/26 00:25:30;;;;;;;12.63;3.75;;;;;;;21.97;75.81;94321.84;5089922;28;20201;-80
2022/08/26 00:27:57;;;;;;;12.63;3.88;;;;;;;21.96;76.10;94324.69;5089180;28;20557;-79
2022/08/26 00:30:27;;;;;;;12.80;4.47;;;;;;;21.96;75.84;94324.69;5089921;28;20263;-79
2022/08/26 00:32:56;;;;;;;11.65;4.35;;;;;;;21.92;75.81;94326.94;5088411;28;20194;-79
2022/08/26 00:35:24;;;;;;;8.52;4.35;;;;;;;21.89;75.97;94327.38;5092485;28;20178;-80
2022/08/26 00:37:51;;;;;;;10.52;4.18;;;;;;;21.89;75.84;94323.97;5093048;28;20283;-80
2022/08/26 00:40:21;;;;;;;11.52;4.00;;;;;;;21.86;76.28;94316.59;5093295;28;20200;-80
2022/08/26 00:42:48;;;;;;;12.00;3.50;;;;;;;21.83;76.21;94319.63;5092484;28;20217;-80
2022/08/26 00:45:16;;;;;;;15.85;4.60;;;;;;;21.74;76.80;94317.31;5099476;28;20190;-79
2022/08/26 00:47:46;;;;;;;13.00;4.75;;;;;;;21.74;77.13;94326.91;5106322;28;20188;-78
2022/08/26 00:50:18;;;;;;;13.30;4.68;;;;;;;21.53;76.85;94292.47;5104012;28;20217;-79
2022/08/26 00:52:46;;;;;;;13.98;4.38;;;;;;;21.73;76.96;94320.91;5110801;28;20269;-80
2022/08/26 00:55:17;;;;;;;17.30;4.93;;;;;;;21.66;77.03;94320.19;5102216;28;20629;-79
2022/08/26 00:57:46;;;;;;;14.43;4.07;;;;;;;21.74;76.89;94327.72;5089762;28;20205;-79
2022/08/26 01:00:17;;;;;;;15.02;4.45;;;;;;;21.73;77.04;94335.75;5089990;28;20197;-79
2022/08/26 01:02:44;;;;;;;12.80;4.55;;;;;;;21.72;77.38;94331.56;5091174;28;20194;-79
2022/08/26 01:05:11;;;;;;;10.90;4.40;;;;;;;21.75;77.32;94321.50;5088880;28;20229;-79
2022/08/26 01:07:40;;;;;;;17.88;4.65;;;;;;;21.74;77.38;94319.13;5088675;28;20194;-79
2022/08/26 01:10:09;;;;;;;14.63;4.18;;;;;;;21.73;77.57;94317.53;5088930;28;20197;-79
2022/08/26 01:12:41;;;;;;;12.23;4.45;;;;;;;21.72;77.19;94319.34;5088925;28;20225;-78
2022/08/26 01:15:10;;;;;;;10.48;3.58;;;;;;;21.70;77.72;94326.56;5089012;28;20194;-78
2022/08/26 01:17:38;;;;;;;14.48;4.60;;;;;;;21.77;77.10;94314.28;5089293;28;20210;-79
2022/08/26 01:20:12;;;;;;;13.48;4.57;;;;;;;21.76;77.11;94315.28;5089343;28;20182;-78
2022/08/26 01:22:49;;;;;;;9.43;4.10;;;;;;;21.72;77.23;94311.53;5088543;28;20198;-78
2022/08/26 01:25:17;;;;;;;10.23;4.50;;;;;;;21.73;77.09;94312.31;5091775;28;20262;-79
2022/08/26 01:27:45;;;;;;;20.75;4.40;;;;;;;21.73;76.73;94312.31;5091636;28;20186;-78
2022/08/26 01:30:13;;;;;;;16.02;4.53;;;;;;;21.70;76.72;94308.34;5092292;28;20194;-79
2022/08/26 01:32:41;;;;;;;16.05;4.97;;;;;;;21.66;76.76;94298.56;5092548;28;20221;-79
2022/08/26 01:35:08;;;;;;;13.85;3.50;;;;;;;21.70;77.03;94308.34;5092122;28;20200;-79
2022/08/26 01:37:38;;;;;;;10.63;4.35;;;;;;;21.71;77.15;94306.53;5092204;28;20201;-79
2022/08/26 01:40:15;;;;;;;13.50;4.57;;;;;;;21.72;77.29;94302.94;5092337;28;20200;-79
2022/08/26 01:42:42;;;;;;;18.10;4.78;;;;;;;21.67;76.88;94300.16;5092216;28;20201;-79
2022/08/26 01:45:15;;;;;;;8.88;3.72;;;;;;;21.74;76.55;94303.50;5072282;28;20260;-79
2022/08/26 01:47:43;;;;;;;13.05;4.22;;;;;;;21.76;76.17;94310.09;5071957;28;20198;-79
2022/08/26 01:50:22;;;;;;;13.23;4.00;;;;;;;21.74;76.94;94314.69;5072395;28;20198;-79
2022/08/26 01:52:50;;;;;;;11.32;3.90;;;;;;;21.64;76.68;94291.00;5072109;28;20228;-79
2022/08/26 01:55:20;;;;;;;13.77;4.15;;;;;;;21.75;76.81;94312.88;5083763;28;20197;-79
2022/08/26 01:57:51;;;;;;;12.55;3.85;;;;;;;21.71;77.40;94301.31;5092585;28;20192;-79
2022/08/26 02:00:18;;;;;;;14.88;4.30;;;;;;;21.75;77.44;94305.06;5092306;28;20560;-79
2022/08/26 02:02:48;;;;;;;12.68;4.25;;;;;;;21.76;77.31;94311.88;5091960;28;20181;-79
2022/08/26 02:05:17;;;;;;;13.32;3.90;;;;;;;21.77;76.93;94308.28;5091970;28;20235;-79
2022/08/26 02:07:45;;;;;;;14.80;3.95;;;;;;;21.72;77.22;94308.94;5092153;28;20613;-79
2022/08/26 02:10:13;;;;;;;18.23;4.07;;;;;;;21.73;77.59;94312.31;5091823;28;20181;-79
2022/08/26 02:12:41;;;;;;;16.95;5.05;;;;;;;21.73;77.39;94309.72;5092248;28;20232;-79
2022/08/26 02:15:12;;;;;;;10.55;4.38;;;;;;;21.70;77.79;94310.94;5091960;28;20193;-80
2022/08/26 02:17:43;;;;;;;17.67;4.57;;;;;;;21.67;77.65;94297.56;5091799;28;20197;-79
2022/08/26 02:20:14;;;;;;;17.67;4.30;;;;;;;21.67;77.77;94311.34;5091710;28;20193;-79
2022/08/26 02:22:42;;;;;;;7.53;3.65;;;;;;;21.65;78.23;94313.38;5091954;28;20209;-79
2022/08/26 02:25:16;;;;;;;11.25;4.30;;;;;;;21.66;78.17;94314.97;5091137;28;20194;-79
2022/08/26 02:27:47;;;;;;;15.10;4.20;;;;;;;21.61;78.29;94301.81;5091609;28;20190;-79
2022/08/26 02:30:17;;;;;;;15.50;4.32;;;;;;;21.62;78.46;94298.19;5091233;28;20194;-79
2022/08/26 02:32:45;;;;;;;13.43;3.95;;;;;;;21.53;78.56;94295.09;5091741;28;20213;-79
2022/08/26 02:35:14;;;;;;;13.18;4.45;;;;;;;21.58;78.40;94291.03;5089894;28;20388;-79
2022/08/26 02:37:41;;;;;;;14.98;4.15;;;;;;;21.60;78.90;94299.44;5091197;28;20584;-79
2022/08/26 02:40:10;;;;;;;10.38;4.32;;;;;;;21.51;79.26;94306.72;5090687;28;20201;-79
2022/08/26 02:42:37;;;;;;;11.45;4.07;;;;;;;21.47;79.16;94301.16;5091680;28;20197;-79
2022/08/26 02:45:07;;;;;;;16.45;4.85;;;;;;;21.48;79.16;94310.53;5090786;28;20664;-80
2022/08/26 02:47:34;;;;;;;10.98;4.00;;;;;;;21.46;79.19;94298.75;5091633;28;20193;-79
2022/08/26 02:50:02;;;;;;;8.60;4.10;;;;;;;21.45;78.93;94305.75;5090742;28;20649;-79
2022/08/26 02:52:29;;;;;;;13.57;4.13;;;;;;;21.47;79.30;94308.97;5090975;27;20229;-79
2022/08/26 02:54:56;;;;;;;20.08;4.72;;;;;;;21.47;79.43;94310.78;5090791;28;20272;-78
2022/08/26 02:57:23;;;;;;;14.77;4.53;;;;;;;21.45;79.73;94307.56;5090898;28;20201;-78
2022/08/26 02:59:50;;;;;;;19.77;4.65;;;;;;;21.40;79.36;94300.41;5091100;28;20197;-78
2022/08/26 03:02:18;;;;;;;17.98;4.78;;;;;;;21.45;78.68;94307.56;5091146;28;20189;-78
2022/08/26 03:04:45;;;;;;;15.23;4.93;;;;;;;21.44;78.66;94309.38;5090483;28;20331;-78
2022/08/26 03:07:11;;;;;;;20.80;4.70;;;;;;;21.35;78.61;94308.06;5090645;28;20242;-78
2022/08/26 03:09:38;;;;;;;16.27;4.97;;;;;;;21.39;78.57;94311.84;5090431;28;20182;-79
2022/08/26 03:12:05;;;;;;;15.10;4.55;;;;;;;21.24;78.34;94293.94;5090866;28;20225;-79
2022/08/26 03:14:32;;;;;;;15.00;4.88;;;;;;;21.37;78.01;94323.44;5091270;28;20549;-78
2022/08/26 03:16:59;;;;;;;19.33;4.50;;;;;;;21.38;77.92;94319.84;5090388;28;20568;-78
2022/08/26 03:19:29;;;;;;;23.15;4.68;;;;;;;21.39;77.72;94318.84;5090675;28;20533;-78
2022/08/26 03:21:57;;;;;;;17.00;4.57;;;;;;;21.39;77.95;94316.25;5090519;28;20258;-79
2022/08/26 03:24:25;;;;;;;12.30;4.18;;;;;;;21.40;77.96;94310.03;5090723;28;20536;-78
2022/08/26 03:26:52;;;;;;;21.70;4.53;;;;;;;21.39;78.02;94308.44;5090639;28;20239;-80
2022/08/26 03:32:04;;;;;;;16.55;4.72;;;;;;;21.43;77.28;94310.41;5090061;28;20212;-80
2022/08/26 03:34:32;;;;;;;21.05;4.38;;;;;;;21.40;77.12;94310.81;5089894;28;20189;-79
2022/08/26 03:36:59;;;;;;;17.75;4.03;;;;;;;21.40;76.59;94313.41;5089982;28;20193;-80
2022/08/26 03:39:26;;;;;;;15.25;4.10;;;;;;;21.39;76.46;94316.25;5090378;28;20182;-79
2022/08/26 03:41:54;;;;;;;15.23;4.70;;;;;;;21.37;76.29;94313.84;5090239;28;20198;-79
2022/08/26 03:44:21;;;;;;;12.98;4.57;;;;;;;21.37;76.16;94307.84;5090094;28;20194;-79
2022/08/26 03:46:48;;;;;;;20.27;4.32;;;;;;;21.34;76.37;94316.09;5090115;28;20189;-78
2022/08/26 03:49:15;;;;;;;10.82;4.03;;;;;;;21.28;76.71;94308.06;5089918;28;20194;-79
2022/08/26 03:51:46;;;;;;;17.15;4.22;;;;;;;21.31;76.48;94312.06;5090107;28;20210;-79
2022/08/26 03:54:13;;;;;;;13.77;4.40;;;;;;;21.30;76.30;94307.88;5089856;28;20186;-80
2022/08/26 03:56:39;;;;;;;17.55;4.50;;;;;;;21.28;76.63;94310.69;5090130;28;20186;-79
2022/08/26 03:59:07;;;;;;;13.02;4.40;;;;;;;21.30;76.55;94305.28;5090212;28;20200;-80
2022/08/26 04:01:33;;;;;;;18.50;4.90;;;;;;;21.31;76.49;94317.28;5090099;28;20644;-80
2022/08/26 04:04:00;;;;;;;22.05;4.57;;;;;;;21.11;76.19;94283.59;5089360;28;20593;-80
2022/08/26 04:06:30;;;;;;;21.30;4.38;;;;;;;21.30;76.16;94310.47;5089630;28;20240;-80
2022/08/26 04:09:00;;;;;;;20.88;5.20;;;;;;;21.27;76.25;94310.91;5090318;28;20194;-79
2022/08/26 04:11:30;;;;;;;13.07;4.47;;;;;;;21.28;76.18;94309.88;5089750;28;20194;-80
2022/08/26 04:13:59;;;;;;;16.48;4.35;;;;;;;21.09;76.41;94282.25;5089874;28;20189;-79
2022/08/26 04:16:27;;;;;;;16.15;4.47;;;;;;;21.30;76.48;94310.47;5089947;28;20258;-79
2022/08/26 04:18:54;;;;;;;13.95;4.90;;;;;;;21.32;76.17;94313.69;5089511;28;20193;-79
2022/08/26 04:21:21;;;;;;;15.95;4.60;;;;;;;21.27;76.59;94303.88;5089252;28;20186;-79
2022/08/26 04:23:49;;;;;;;19.77;4.85;;;;;;;21.25;77.11;94305.91;5089632;28;20221;-79
2022/08/26 04:26:19;;;;;;;16.48;4.57;;;;;;;21.29;76.65;94301.88;5089506;28;20178;-78
2022/08/26 04:28:46;;;;;;;15.13;5.13;;;;;;;21.28;77.29;94302.88;5089095;28;20291;-79
2022/08/26 04:31:14;;;;;;;19.27;5.18;;;;;;;21.32;77.25;94300.69;5089424;28;20208;-80
2022/08/26 04:33:41;;;;;;;18.05;4.85;;;;;;;21.09;77.12;94269.25;5089288;28;20197;-79
2022/08/26 04:36:09;;;;;;;22.17;4.65;;;;;;;21.37;76.98;94303.44;5087883;28;20194;-80
2022/08/26 04:38:36;;;;;;;13.60;4.80;;;;;;;21.37;77.24;94305.22;5089102;28;20651;-80
2022/08/26 04:41:04;;;;;;;21.88;4.75;;;;;;;21.34;76.88;94293.47;5089142;28;20579;-79
2022/08/26 04:43:32;;;;;;;14.32;5.03;;;;;;;21.45;76.69;94307.56;5089361;28;20220;-80
2022/08/26 04:46:01;;;;;;;18.17;5.30;;;;;;;21.48;76.56;94315.75;5089484;28;20192;-80
2022/08/26 04:48:29;;;;;;;14.75;5.22;;;;;;;21.37;76.58;94287.03;5089568;28;20190;-79
2022/08/26 04:50:57;;;;;;;17.50;5.05;;;;;;;21.56;76.64;94316.50;5089029;28;20189;-79
2022/08/26 04:53:24;;;;;;;23.58;5.55;;;;;;;21.58;76.80;94306.66;5089560;28;20212;-78
2022/08/26 04:55:51;;;;;;;17.55;4.35;;;;;;;21.56;76.68;94303.47;5089143;28;20293;-81
2022/08/26 04:58:20;;;;;;;16.90;4.72;;;;;;;21.59;76.28;94303.03;5089378;28;20186;-81
2022/08/26 05:00:50;;;;;;;18.88;4.93;;;;;;;21.69;75.97;94304.16;5093607;28;20193;-80
2022/08/26 05:03:17;;;;;;;16.15;4.80;;;;;;;21.76;75.69;94309.25;5093784;28;20277;-82
2022/08/26 05:05:45;;;;;;;21.13;4.85;;;;;;;21.73;75.94;94300.09;5093466;28;20232;-78
2022/08/26 05:08:14;;;;;;;19.77;5.05;;;;;;;21.79;76.10;94306.25;5093804;28;20192;-82
2022/08/26 05:10:43;;;;;;;15.32;5.05;;;;;;;21.87;76.26;94313.75;5093617;28;20185;-82
2022/08/26 05:13:10;;;;;;;20.70;5.53;;;;;;;21.92;75.83;94308.69;5093742;28;20229;-80
2022/08/26 05:15:37;;;;;;;18.00;5.35;;;;;;;21.98;75.51;94309.66;5095033;28;20190;-81
2022/08/26 05:18:07;;;;;;;20.08;5.72;;;;;;;22.01;75.59;94317.81;5095008;28;20281;-80
2022/08/26 05:20:39;;;;;;;20.73;5.28;;;;;;;21.93;75.14;94293.88;5093753;28;20194;-80
2022/08/26 05:23:06;;;;;;;15.82;4.85;;;;;;;22.09;74.75;94314.13;5093831;28;20198;-79
2022/08/26 05:25:37;;;;;;;25.40;5.53;;;;;;;22.03;74.78;94307.19;5093118;28;20190;-80
2022/08/26 05:28:04;;;;;;;20.30;5.65;;;;;;;22.18;74.62;94319.88;5093659;28;20216;-79
2022/08/26 05:30:31;;;;;;;21.40;5.95;;;;;;;22.23;73.89;94322.59;5093380;28;20189;-79
2022/08/26 05:32:58;;;;;;;16.42;6.32;;;;;;;22.02;74.71;94287.34;5093421;28;20221;-80
2022/08/26 05:35:30;;;;;;;29.95;5.15;;;;;;;22.25;75.24;94315.38;5094222;28;20189;-81
2022/08/26 05:37:57;;;;;;;16.98;4.70;;;;;;;22.33;75.05;94322.09;5098825;28;20609;-80
2022/08/26 05:40:25;;;;;;;23.00;5.05;;;;;;;22.34;75.03;94321.88;5098330;28;20197;-80
2022/08/26 05:42:52;;;;;;;17.17;4.80;;;;;;;22.45;74.76;94330.75;5099126;28;20621;-81
2022/08/26 05:45:22;;;;;;;23.05;5.05;;;;;;;22.55;74.27;94328.44;5096892;28;20577;-80
2022/08/26 05:47:49;;;;;;;23.23;5.45;;;;;;;22.61;74.22;94332.75;5105459;28;20241;-80
2022/08/26 05:50:20;;;;;;;20.35;4.80;;;;;;;22.69;74.06;94331.66;5117233;28;20229;-78
2022/08/26 05:52:49;;;;;;;20.10;5.43;;;;;;;22.63;73.58;94304.66;5110077;28;20205;-80
2022/08/26 05:55:17;;;;;;;19.15;5.70;;;;;;;22.83;73.54;94330.44;5115940;28;20208;-82
2022/08/26 05:57:44;;;;;;;22.05;5.85;;;;;;;22.93;73.57;94327.34;5112768;28;20181;-81
2022/08/26 06:00:12;;;;;;;20.80;4.97;;;;;;;22.95;73.75;94320.09;5096641;28;20209;-81
2022/08/26 06:02:39;;;;;;;17.65;4.53;;;;;;;23.03;73.51;94331.00;5100791;28;20215;-81
2022/08/26 06:05:06;;;;;;;23.38;5.60;;;;;;;23.10;73.51;94337.91;5105852;28;20229;-81
2022/08/26 06:10:15;;;;;;;19.45;4.90;;;;;;;23.04;73.84;94326.56;5072378;28;20289;-81
2022/08/26 06:12:42;;;;;;;25.10;6.50;;;;;;;23.18;73.28;94335.78;5072353;28;20273;-79
2022/08/26 06:15:11;;;;;;;13.98;5.65;;;;;;;23.17;73.40;94328.97;5072291;28;20755;-79
2022/08/26 06:17:37;;;;;;;14.50;5.03;;;;;;;23.25;73.32;94346.91;5072191;28;20187;-77
2022/08/26 06:20:05;;;;;;;21.00;5.50;;;;;;;23.31;73.27;94334.78;5089000;28;20182;-78
2022/08/26 06:27:58;;;;;;;20.33;5.50;;;;;;;23.53;72.96;94341.06;5081182;28;20188;-78
2022/08/26 06:30:25;;;;;;;18.35;5.10;;;;;;;23.66;72.13;94342.69;5090884;28;20193;-78
2022/08/26 06:32:52;;;;;;;18.52;6.20;;;;;;;23.72;71.67;94346.97;5090765;28;20221;-77
2022/08/26 06:35:19;;;;;;;18.92;5.18;;;;;;;23.85;70.58;94345.97;5090730;28;20198;-77
2022/08/26 06:37:46;;;;;;;16.90;5.13;;;;;;;23.95;70.36;94356.63;5090403;28;20182;-77
2022/08/26 06:40:13;;;;;;;14.52;5.20;;;;;;;23.99;69.17;94355.13;5089686;28;20193;-78
2022/08/26 06:42:41;;;;;;;11.77;4.63;;;;;;;24.08;69.02;94363.41;5090334;28;20206;-78
2022/08/26 06:45:08;;;;;;;14.43;5.28;;;;;;;24.17;69.06;94354.19;5089601;28;20653;-77
2022/08/26 06:47:36;;;;;;;16.33;4.95;;;;;;;24.18;68.85;94340.13;5089772;28;20530;-78
2022/08/26 06:50:03;;;;;;;14.98;5.25;;;;;;;24.28;69.13;94356.00;5090337;28;20267;-78
2022/08/26 06:52:29;;;;;;;19.45;5.60;;;;;;;24.35;68.98;94357.69;5089940;28;20220;-78
2022/08/26 06:54:58;;;;;;;16.08;4.65;;;;;;;24.42;68.96;94351.34;5090714;28;20193;-77
2022/08/26 06:57:25;;;;;;;21.23;4.80;;;;;;;24.46;69.05;94354.28;5090028;28;20644;-78
2022/08/26 06:59:53;;;;;;;17.27;5.10;;;;;;;24.53;68.49;94355.75;5090336;28;20202;-78
2022/08/26 07:02:20;;;;;;;13.43;5.28;;;;;;;24.61;67.87;94353.78;5086674;28;20276;-77
2022/08/26 07:04:47;;;;;;;12.95;5.43;;;;;;;24.70;68.01;94352.41;5090012;28;20228;-77
2022/08/26 07:07:15;;;;;;;14.38;5.22;;;;;;;24.80;67.75;94354.41;5089711;28;20235;-78
2022/08/26 07:09:41;;;;;;;14.45;4.18;;;;;;;24.89;67.67;94353.00;5090152;28;20213;-78
2022/08/26 07:12:08;;;;;;;16.58;5.18;;;;;;;24.91;66.43;94351.72;5089606;28;20204;-78
2022/08/26 07:14:35;;;;;;;15.18;4.85;;;;;;;24.95;65.13;94360.69;5089520;28;20245;-78
2022/08/26 07:17:03;;;;;;;23.58;4.97;;;;;;;24.96;64.14;94345.81;5089169;28;20611;-78
2022/08/26 07:19:30;;;;;;;25.63;5.57;;;;;;;24.96;64.45;94361.50;5089489;28;20178;-78
2022/08/26 07:21:57;;;;;;;21.60;4.43;;;;;;;24.98;64.91;94356.81;5088995;28;20189;-78
2022/08/26 07:24:24;;;;;;;18.05;5.40;;;;;;;24.90;64.32;94357.97;5089904;28;20219;-78
2022/08/26 07:26:53;;;;;;;15.27;4.95;;;;;;;24.91;64.49;94364.00;5089947;28;20201;-78
2022/08/26 07:29:20;;;;;;;15.38;4.60;;;;;;;24.95;64.32;94360.69;5088865;28;20201;-78
2022/08/26 07:31:47;;;;;;;15.75;5.40;;;;;;;25.00;63.88;94360.78;5089619;28;20204;-79
2022/08/26 07:34:16;;;;;;;23.15;5.30;;;;;;;25.02;64.41;94363.16;5089073;28;20707;-78
2022/08/26 07:36:43;;;;;;;19.83;5.13;;;;;;;25.02;65.01;94356.09;5089886;28;20226;-78
2022/08/26 07:39:10;;;;;;;17.08;4.90;;;;;;;24.97;63.03;94360.47;5089758;28;20264;-78
2022/08/26 07:41:37;;;;;;;23.15;4.97;;;;;;;24.98;62.78;94360.22;5090186;28;20186;-78
2022/08/26 07:44:04;;;;;;;26.05;6.05;;;;;;;24.92;63.28;94361.16;5089361;28;20197;-79
2022/08/26 07:46:31;;;;;;;13.13;5.07;;;;;;;25.00;63.22;94355.56;5089663;28;20247;-78
2022/08/26 07:48:58;;;;;;;27.67;5.43;;;;;;;25.02;63.43;94361.34;5089572;28;20194;-78
2022/08/26 07:51:27;;;;;;;12.65;4.70;;;;;;;25.07;63.36;94359.84;5089401;28;20185;-80
2022/08/26 07:53:55;;;;;;;17.35;4.65;;;;;;;25.12;63.11;94360.75;5090086;28;20287;-79
2022/08/26 07:56:22;;;;;;;11.88;4.43;;;;;;;25.13;63.67;94364.97;5089049;28;20197;-79
2022/08/26 07:58:49;;;;;;;20.38;5.32;;;;;;;25.21;63.67;94366.38;5088565;28;20246;-80
2022/08/26 08:01:16;;;;;;;14.68;4.88;;;;;;;25.28;63.79;94369.66;5086734;28;20193;-81
2022/08/26 08:03:43;;;;;;;13.32;5.47;;;;;;;25.32;63.62;94367.34;5088785;28;20204;-79
2022/08/26 08:06:10;;;;;;;21.90;5.20;;;;;;;25.32;63.29;94359.50;5089058;28;20229;-80
2022/08/26 08:08:40;;;;;;;19.25;5.80;;;;;;;25.46;62.59;94372.03;5089415;28;20288;-80
2022/08/26 08:11:07;;;;;;;15.10;4.50;;;;;;;25.55;62.60;94361.16;5089100;28;20197;-79
2022/08/26 08:13:34;;;;;;;14.07;5.22;;;;;;;25.67;62.44;94378.38;5089029;28;20585;-79
2022/08/26 08:16:01;;;;;;;20.75;5.15;;;;;;;25.70;61.46;94362.19;5088838;28;20197;-80
2022/08/26 08:18:28;;;;;;;14.95;5.15;;;;;;;25.83;61.65;94376.81;5088831;28;20201;-78
2022/08/26 08:20:55;;;;;;;14.63;4.88;;;;;;;25.81;61.88;94365.78;5088572;28;20190;-79
2022/08/26 08:23:22;;;;;;;18.08;4.78;;;;;;;25.90;62.10;94364.31;5089353;28;20220;-79
2022/08/26 08:25:50;;;;;;;24.17;5.32;;;;;;;25.95;60.71;94366.22;5088979;28;20189;-80
2022/08/26 08:28:17;;;;;;;15.95;5.68;;;;;;;26.09;59.13;94371.94;5088272;28;20194;-78
2022/08/26 08:30:44;;;;;;;22.23;5.07;;;;;;;26.17;59.22;94367.06;5088501;28;20205;-81
2022/08/26 08:33:11;;;;;;;14.70;5.55;;;;;;;26.21;59.72;94367.38;5086407;28;20240;-80
2022/08/26 08:35:41;;;;;;;20.55;5.32;;;;;;;26.25;57.85;94352.72;5088556;28;20200;-79
2022/08/26 08:38:08;;;;;;;17.58;5.28;;;;;;;26.47;57.38;94369.31;5088518;28;20211;-78
2022/08/26 08:40:38;;;;;;;12.18;4.72;;;;;;;26.60;57.93;94359.47;5088650;28;20189;-79
2022/08/26 08:43:10;;;;;;;14.60;5.07;;;;;;;26.66;56.99;94348.78;5087708;28;20178;-80
2022/08/26 08:45:41;;;;;;;29.30;6.07;;;;;;;26.83;56.87;94359.22;5088116;28;20190;-80
2022/08/26 08:48:14;;;;;;;16.58;5.75;;;;;;;26.90;56.88;94351.94;5088383;28;20208;-80
2022/08/26 08:50:44;;;;;;;25.30;6.10;;;;;;;26.98;55.41;94350.69;5087891;28;20194;-80
2022/08/26 08:53:16;;;;;;;14.32;5.80;;;;;;;27.00;55.39;94346.78;5088556;28;20283;-79
2022/08/26 08:55:58;;;;;;;21.08;6.10;;;;;;;26.84;53.97;94347.66;5088518;28;20229;-79
2022/08/26 08:58:36;;;;;;;20.50;5.85;;;;;;;26.81;54.46;94345.53;5085601;28;20578;-79
2022/08/26 09:01:08;;;;;;;13.95;4.85;;;;;;;26.92;55.23;94347.22;5088353;28;20700;-81
2022/08/26 09:03:45;;;;;;;16.08;5.57;;;;;;;27.11;55.01;94349.50;5084972;28;20189;-81
2022/08/26 09:06:17;;;;;;;19.70;5.28;;;;;;;27.14;53.70;94341.16;5085444;28;20225;-80
2022/08/26 09:08:46;;;;;;;21.88;4.97;;;;;;;27.22;53.01;94338.88;5085911;28;20558;-78
2022/08/26 09:11:15;;;;;;;12.32;4.75;;;;;;;27.33;52.71;94342.38;5085204;28;20302;-79
2022/08/26 09:13:49;;;;;;;21.13;5.22;;;;;;;27.37;52.20;94335.56;5085709;28;20727;-79
2022/08/26 09:16:20;;;;;;;14.88;5.15;;;;;;;27.51;52.52;94335.94;5085370;28;20182;-78
2022/08/26 09:18:59;;;;;;;18.98;4.35;;;;;;;27.59;51.90;94324.16;5085269;28;20190;-77
2022/08/26 09:21:27;;;;;;;18.33;5.40;;;;;;;27.78;51.72;94333.25;5085373;28;20341;-78
2022/08/26 09:23:56;;;;;;;19.27;4.68;;;;;;;27.90;47.84;94327.81;5083048;28;20209;-79
2022/08/26 09:26:26;;;;;;;18.13;4.03;;;;;;;27.91;46.09;94319.66;5082143;28;20193;-77
2022/08/26 09:28:58;;;;;;;23.15;5.03;;;;;;;28.01;46.60;94317.09;5085122;28;20198;-79
2022/08/26 09:31:27;;;;;;;14.70;4.18;;;;;;;28.12;44.47;94323.19;5087841;28;20197;-80
2022/08/26 09:34:07;;;;;;;16.83;4.50;;;;;;;28.18;45.82;94324.78;5088118;28;20209;-79
2022/08/26 09:36:37;;;;;;;10.85;4.35;;;;;;;28.23;45.40;94319.53;5085471;28;20193;-80
2022/08/26 09:39:05;;;;;;;21.40;4.72;;;;;;;28.33;44.15;94324.06;5087935;28;20652;-78
2022/08/26 09:41:35;;;;;;;12.52;4.40;;;;;;;28.39;42.20;94317.81;5087439;28;20258;-79
2022/08/26 09:44:13;;;;;;;18.52;5.68;;;;;;;28.35;43.83;94327.25;5087710;28;20194;-81
2022/08/26 09:46:44;;;;;;;19.35;5.53;;;;;;;28.35;43.50;94322.00;5091380;28;20208;-79
2022/08/26 09:49:25;;;;;;;16.65;5.03;;;;;;;28.41;43.74;94322.78;5091948;28;20371;-78
2022/08/26 09:52:09;;;;;;;12.82;5.60;;;;;;;28.50;41.75;94329.97;5091306;28;20202;-79
2022/08/26 09:54:36;;;;;;;13.57;5.78;;;;;;;28.39;41.99;94322.28;5090524;28;20217;-79
2022/08/26 09:57:20;;;;;;;12.68;5.18;;;;;;;28.37;42.09;94327.00;5091563;28;20582;-79
2022/08/26 09:59:49;;;;;;;20.27;5.30;;;;;;;28.45;41.61;94318.59;5091552;28;20200;-80
2022/08/26 10:02:35;;;;;;;10.35;4.60;;;;;;;28.45;41.32;94321.22;5091581;28;20209;-80
2022/08/26 10:05:07;;;;;;;7.35;5.03;;;;;;;28.53;41.03;94317.31;5088534;28;20229;-79
2022/08/26 10:07:41;;;;;;;13.88;4.95;;;;;;;28.46;41.57;94321.00;5091406;28;20186;-82
2022/08/26 10:10:13;;;;;;;15.75;5.28;;;;;;;28.58;42.27;94317.34;5091274;28;20394;-81
2022/08/26 10:12:51;;;;;;;12.20;4.93;;;;;;;28.61;41.83;94311.56;5089435;28;20190;-80
2022/08/26 10:15:21;;;;;;;12.95;4.70;;;;;;;28.66;41.35;94314.19;5090988;28;20232;-79
2022/08/26 10:17:55;;;;;;;24.98;6.20;;;;;;;28.75;41.46;94307.38;5091243;28;20198;-80
2022/08/26 10:20:26;;;;;;;13.60;5.88;;;;;;;28.86;41.20;94303.72;5090510;28;20647;-81
2022/08/26 10:22:59;;;;;;;17.50;5.82;;;;;;;28.97;41.47;94307.97;5091037;28;20197;-80
2022/08/26 10:25:37;;;;;;;10.93;5.43;;;;;;;29.07;40.92;94299.28;5090726;28;20204;-79
2022/08/26 10:28:11;;;;;;;11.23;4.47;;;;;;;29.18;39.71;94310.59;5090469;28;20186;-80
2022/08/26 10:30:45;;;;;;;11.63;5.45;;;;;;;29.27;39.36;94303.75;5091008;28;20198;-81
2022/08/26 10:33:14;;;;;;;18.83;5.90;;;;;;;29.38;39.22;94307.19;5090527;28;20194;-80
2022/08/26 10:35:48;;;;;;;16.40;5.00;;;;;;;29.43;38.85;94309.81;5090478;28;20554;-78
2022/08/26 10:38:22;;;;;;;13.93;5.72;;;;;;;29.36;38.94;94306.66;5090511;28;20651;-79
2022/08/26 10:40:53;;;;;;;14.30;5.30;;;;;;;29.43;39.66;94315.88;5089741;28;20193;-81
2022/08/26 10:43:26;;;;;;;14.52;5.55;;;;;;;29.36;38.32;94299.56;5088888;28;20193;-79
2022/08/26 10:45:59;;;;;;;10.90;5.15;;;;;;;29.50;38.28;94311.13;5090821;28;20224;-77
2022/08/26 10:48:35;;;;;;;12.57;5.32;;;;;;;29.48;38.18;94313.22;5089728;28;20218;-79
2022/08/26 10:51:02;;;;;;;10.40;5.53;;;;;;;29.50;38.58;94299.81;5090354;28;20564;-78
2022/08/26 10:53:39;;;;;;;11.73;5.07;;;;;;;29.55;39.61;94302.44;5089768;28;20277;-79
2022/08/26 10:56:11;;;;;;;14.52;5.70;;;;;;;29.56;37.98;94298.78;5089837;28;20621;-80
2022/08/26 10:58:55;;;;;;;17.60;5.55;;;;;;;29.55;36.40;94293.75;5089597;28;20197;-81
2022/08/26 11:01:42;;;;;;;12.05;5.63;;;;;;;29.39;37.86;94292.97;5088085;28;20189;-78
2022/08/26 11:04:23;;;;;;;17.13;5.22;;;;;;;29.35;38.24;94290.06;5090266;28;20208;-78
2022/08/26 11:07:29;;;;;;;7.75;5.10;;;;;;;29.25;37.32;94287.44;5089955;28;20668;-78
2022/08/26 11:09:57;;;;;;;7.90;4.90;;;;;;;29.34;37.13;94290.34;5088866;28;20258;-79
2022/08/26 11:12:50;;;;;;;11.50;5.45;;;;;;;29.38;37.20;94297.44;5089889;28;20586;-79
2022/08/26 11:15:50;;;;;;;8.60;4.95;;;;;;;29.37;37.55;94297.72;5026739;28;20809;-78
2022/08/26 11:18:44;;;;;;;13.80;5.43;;;;;;;29.35;37.66;94297.19;5020567;28;20206;-80
2022/08/26 11:21:47;;;;;;;11.55;5.72;;;;;;;29.31;37.83;94291.63;5026107;28;20219;-79
2022/08/26 11:24:39;;;;;;;10.75;5.53;;;;;;;29.28;38.03;94292.19;5027616;28;20696;-79
2022/08/26 11:27:32;;;;;;;12.35;5.38;;;;;;;29.23;37.25;94284.25;5026708;28;20188;-78
2022/08/26 11:30:01;;;;;;;15.02;6.72;;;;;;;29.08;37.56;94273.75;5027207;28;20317;-79
2022/08/26 11:32:47;;;;;;;11.30;5.20;;;;;;;28.95;38.03;94273.19;5027049;28;20679;-80
2022/08/26 11:35:47;;;;;;;11.57;5.70;;;;;;;28.98;37.34;94279.81;5027225;28;20313;-80
2022/08/26 11:38:20;;;;;;;7.60;5.50;;;;;;;28.98;38.25;94283.22;5027781;28;20607;-78
2022/08/26 11:40:56;;;;;;;13.55;5.50;;;;;;;28.99;37.97;94282.16;5025259;28;20834;-78
2022/08/26 11:43:26;;;;;;;12.80;5.25;;;;;;;29.05;37.73;94280.31;5026949;28;20292;-78
2022/08/26 11:46:00;;;;;;;12.65;6.18;;;;;;;28.86;37.37;94277.38;5026178;28;20285;-77
2022/08/26 11:48:32;;;;;;;12.98;5.47;;;;;;;28.95;36.72;94270.56;5026640;28;20191;-77
2022/08/26 11:51:03;;;;;;;14.63;5.70;;;;;;;28.89;36.92;94271.63;5035145;28;20614;-78